Time;durP1;ratioP1;P1;durP2;ratioP2;P2;SDS_P1;SDS_P2;PMS_P1;PMS_P2;Temp;Humidity;BMP_temperature;BMP_pressure;BME280_temperature;BME280_humidity;BME280_pressure;Samples;Min_cycle;Max_cycle;Signal;HPM_P1;HPM_P2
2022/10/02 00:01:46;;;;;;;21.50;3.50;;;11.70;99.90;;;;;;4889874;29;20044;-66
2022/10/02 00:04:18;;;;;;;19.15;3.97;;;11.60;99.90;;;;;;4892479;29;21605;-66
2022/10/02 00:06:49;;;;;;;17.35;3.20;;;11.60;99.90;;;;;;4877410;29;20100;-66
2022/10/02 00:09:32;;;;;;;13.27;3.17;;;11.50;99.90;;;;;;4878441;29;20407;-66
2022/10/02 00:11:59;;;;;;;14.40;4.07;;;11.50;99.90;;;;;;4895086;29;20044;-67
2022/10/02 00:14:32;;;;;;;31.07;5.43;;;11.50;99.90;;;;;;4895522;29;20344;-66
2022/10/02 00:17:00;;;;;;;17.17;3.47;;;11.50;99.90;;;;;;4880281;29;20052;-66
2022/10/02 00:19:26;;;;;;;27.27;4.60;;;11.50;99.90;;;;;;4896470;29;20048;-66
2022/10/02 00:21:57;;;;;;;29.48;4.25;;;11.40;99.90;;;;;;4880464;29;20055;-65
2022/10/02 00:24:36;;;;;;;16.50;3.95;;;11.30;99.90;;;;;;4898126;29;20052;-67
2022/10/02 00:27:26;;;;;;;21.63;5.30;;;11.30;99.90;;;;;;4897508;29;20060;-67
2022/10/02 00:29:55;;;;;;;18.27;4.80;;;11.30;99.90;;;;;;4877172;29;20088;-65
2022/10/02 00:32:29;;;;;;;35.60;6.75;;;11.30;99.90;;;;;;4895948;29;20055;-65
2022/10/02 00:35:17;;;;;;;16.92;5.80;;;11.20;99.90;;;;;;4884356;29;20059;-65
2022/10/02 00:38:13;;;;;;;27.52;8.18;;;11.20;99.90;;;;;;4888173;29;20076;-67
2022/10/02 00:40:50;;;;;;;29.08;7.35;;;11.20;99.90;;;;;;4900712;29;20048;-66
2022/10/02 00:43:31;;;;;;;35.97;8.23;;;11.20;99.90;;;;;;4897330;29;20032;-66
2022/10/02 00:46:23;;;;;;;35.58;8.35;;;11.20;99.90;;;;;;4901472;29;20064;-66
2022/10/02 00:49:18;;;;;;;28.13;8.18;;;11.20;99.90;;;;;;4902290;29;20071;-66
2022/10/02 00:52:01;;;;;;;40.25;8.68;;;11.20;99.90;;;;;;4887524;29;20112;-67
2022/10/02 00:54:55;;;;;;;34.25;9.52;;;11.20;99.90;;;;;;4886763;29;20040;-66
2022/10/02 00:57:36;;;;;;;40.83;10.05;;;11.20;99.90;;;;;;4899756;29;20049;-65
2022/10/02 01:00:18;;;;;;;33.83;8.65;;;11.10;99.90;;;;;;4886163;29;20139;-65
2022/10/02 01:03:03;;;;;;;43.85;9.50;;;11.10;99.90;;;;;;4901931;29;20380;-66
2022/10/02 01:05:29;;;;;;;59.28;9.73;;;11.10;99.90;;;;;;4890895;29;20076;-67
2022/10/02 01:07:56;;;;;;;36.58;8.38;;;11.10;99.90;;;;;;4900572;29;20052;-66
2022/10/02 01:10:24;;;;;;;26.23;8.35;;;11.10;99.90;;;;;;4901029;29;20051;-67
2022/10/02 01:12:50;;;;;;;;;;;11.10;99.90;;;;;;4901018;29;20049;-67
2022/10/02 01:15:19;;;;;;;27.75;6.80;;;11.10;99.90;;;;;;4885128;29;19958;-67
2022/10/02 01:17:48;;;;;;;28.33;6.18;;;11.10;99.90;;;;;;4899802;29;20053;-67
2022/10/02 01:20:16;;;;;;;29.85;6.85;;;11.10;99.90;;;;;;4902519;29;20045;-68
2022/10/02 01:22:56;;;;;;;;;;;11.10;99.90;;;;;;4903596;29;20108;-65
2022/10/02 01:25:22;;;;;;;28.02;6.65;;;11.10;99.90;;;;;;4907931;29;19927;-67
2022/10/02 01:27:51;;;;;;;30.85;6.40;;;11.10;99.90;;;;;;4899857;29;20449;-66
2022/10/02 01:30:18;;;;;;;33.65;6.75;;;11.10;99.90;;;;;;4894675;29;20446;-66
2022/10/02 01:32:52;;;;;;;32.75;6.50;;;11.10;99.90;;;;;;4908646;29;20062;-66
2022/10/02 03:25:14;;;;;;;26.27;4.40;;;11.30;99.90;;;;;;5830116;23;20063;-68
2022/10/02 03:27:50;;;;;;;24.90;4.05;;;11.30;99.90;;;;;;4848405;29;20054;-64
2022/10/02 03:30:19;;;;;;;26.17;3.80;;;11.30;99.90;;;;;;4849046;29;20045;-66
2022/10/02 03:32:47;;;;;;;36.67;4.30;;;11.30;99.90;;;;;;4845260;29;20458;-66
2022/10/02 03:35:13;;;;;;;21.15;4.22;;;11.30;99.90;;;;;;4848864;29;20148;-66
2022/10/02 03:37:46;;;;;;;23.48;3.33;;;11.30;99.90;;;;;;4840361;29;20070;-66
2022/10/02 03:40:12;;;;;;;21.23;3.63;;;11.30;99.90;;;;;;4825385;29;20035;-65
2022/10/02 03:42:39;;;;;;;29.65;3.80;;;11.30;99.90;;;;;;4832648;29;20045;-66
2022/10/02 03:45:05;;;;;;;24.33;3.58;;;11.30;99.90;;;;;;4827377;29;20042;-66
2022/10/02 03:47:31;;;;;;;37.10;4.45;;;11.30;99.90;;;;;;4822449;29;20042;-66
2022/10/02 03:49:56;;;;;;;20.42;3.58;;;11.30;99.90;;;;;;4818896;29;20043;-66
2022/10/02 03:52:23;;;;;;;19.45;3.65;;;11.40;99.90;;;;;;4814607;29;20075;-66
2022/10/02 03:54:54;;;;;;;36.72;4.32;;;11.30;99.90;;;;;;4823540;29;20047;-65
2022/10/02 03:57:23;;;;;;;24.50;3.60;;;11.30;99.90;;;;;;4820538;29;20447;-67
2022/10/02 04:00:07;;;;;;;;;;;11.30;99.90;;;;;;4817503;29;20068;-66
2022/10/02 04:02:38;;;;;;;18.88;3.53;;;11.30;99.90;;;;;;4822368;29;19924;-66
2022/10/02 04:05:26;;;;;;;20.20;3.38;;;11.30;99.90;;;;;;4815584;29;20047;-65
2022/10/02 04:07:58;;;;;;;20.05;3.40;;;11.30;99.90;;;;;;4825037;29;20130;-66
2022/10/02 04:10:39;;;;;;;20.75;3.10;;;11.40;99.90;;;;;;4823833;29;20375;-66
2022/10/02 04:13:26;;;;;;;23.23;4.00;;;11.30;99.90;;;;;;4825910;29;20056;-66
2022/10/02 04:16:32;;;;;;;29.35;5.07;;;11.30;99.90;;;;;;4826329;29;20110;-66
2022/10/02 04:19:02;;;;;;;17.50;3.92;;;11.30;99.90;;;;;;4825867;29;20043;-66
2022/10/02 04:21:42;;;;;;;28.55;4.07;;;11.30;99.90;;;;;;4813332;29;20093;-66
2022/10/02 04:24:26;;;;;;;27.70;3.60;;;11.40;99.90;;;;;;4830433;29;20046;-67
2022/10/02 04:27:10;;;;;;;30.70;4.43;;;11.30;99.90;;;;;;4818163;29;20401;-66
2022/10/02 04:29:46;;;;;;;19.27;3.20;;;11.30;99.90;;;;;;4824286;29;20094;-68
2022/10/02 04:32:23;;;;;;;29.00;4.00;;;11.40;99.90;;;;;;4823856;29;20062;-66
2022/10/02 04:34:48;;;;;;;22.63;3.67;;;11.30;99.90;;;;;;4828965;29;20098;-66
2022/10/02 04:37:26;;;;;;;26.48;3.50;;;11.30;99.90;;;;;;4815241;29;20095;-65
2022/10/02 04:40:20;;;;;;;22.13;3.15;;;11.20;99.90;;;;;;4828502;29;20042;-65
2022/10/02 04:42:55;;;;;;;21.42;3.25;;;11.20;99.90;;;;;;4832547;29;20058;-65
2022/10/02 04:45:38;;;;;;;24.80;3.40;;;11.20;99.90;;;;;;4816622;29;20069;-65
2022/10/02 04:48:47;;;;;;;27.77;4.32;;;11.30;99.90;;;;;;4821754;29;20055;-65
2022/10/02 04:51:16;;;;;;;26.85;4.00;;;11.20;99.90;;;;;;4831119;29;20462;-65
2022/10/02 04:53:55;;;;;;;28.73;3.83;;;11.20;99.90;;;;;;4834413;29;20041;-65
2022/10/02 04:56:35;;;;;;;22.33;3.78;;;11.20;99.90;;;;;;4832583;29;20058;-66
2022/10/02 04:59:25;;;;;;;24.10;3.85;;;11.20;99.90;;;;;;4830237;29;20127;-66
2022/10/02 05:02:02;;;;;;;24.38;4.10;;;11.10;99.90;;;;;;4827720;29;20055;-66
2022/10/02 05:04:38;;;;;;;32.47;3.95;;;11.10;99.90;;;;;;4828050;29;20075;-65
2022/10/02 05:07:12;;;;;;;19.08;3.65;;;11.10;99.90;;;;;;4813296;29;20054;-64
2022/10/02 05:09:49;;;;;;;19.73;3.30;;;11.00;99.90;;;;;;4830728;29;20046;-66
2022/10/02 05:12:52;;;;;;;20.95;4.20;;;11.00;99.90;;;;;;4824177;29;20530;-66
2022/10/02 05:15:55;;;;;;;23.67;3.92;;;11.00;99.90;;;;;;4826949;29;20065;-65
2022/10/02 05:18:43;;;;;;;24.95;3.55;;;11.00;99.90;;;;;;4824715;29;20127;-67
2022/10/02 05:21:29;;;;;;;24.65;3.47;;;10.90;99.90;;;;;;4828204;29;20050;-66
2022/10/02 05:24:16;;;;;;;31.23;3.90;;;10.90;99.90;;;;;;4825190;29;20470;-66
2022/10/02 05:27:14;;;;;;;25.45;3.10;;;10.90;99.90;;;;;;4826483;29;20510;-66
2022/10/02 05:29:43;;;;;;;29.63;4.63;;;10.90;99.90;;;;;;4811215;29;20081;-66
2022/10/02 05:32:32;;;;;;;25.77;3.33;;;10.90;99.90;;;;;;4806598;29;20051;-67
2022/10/02 05:35:15;;;;;;;30.77;3.67;;;10.80;99.90;;;;;;4814432;29;20054;-66
2022/10/02 05:37:53;;;;;;;25.30;3.85;;;10.80;99.90;;;;;;4825689;29;20107;-66
2022/10/02 05:40:43;;;;;;;24.38;3.15;;;10.80;99.90;;;;;;4824249;29;20121;-66
2022/10/02 05:43:14;;;;;;;23.05;3.70;;;10.80;99.90;;;;;;4828083;29;20074;-66
2022/10/02 05:46:08;;;;;;;30.52;3.72;;;10.80;99.90;;;;;;4826158;29;20042;-66
2022/10/02 05:48:43;;;;;;;31.50;4.35;;;10.70;99.90;;;;;;4826480;29;20054;-66
2022/10/02 05:51:35;;;;;;;24.67;3.60;;;10.70;99.90;;;;;;4831951;29;20071;-66
2022/10/02 05:54:25;;;;;;;22.50;3.60;;;10.70;99.90;;;;;;4826546;29;20054;-66
2022/10/02 05:57:21;;;;;;;33.25;4.22;;;10.70;99.90;;;;;;4830574;29;20129;-66
2022/10/02 06:00:05;;;;;;;40.78;4.68;;;10.70;99.90;;;;;;4832428;29;20054;-66
2022/10/02 06:02:44;;;;;;;20.70;3.47;;;10.70;99.90;;;;;;4827771;29;20042;-66
2022/10/02 06:05:22;;;;;;;26.38;3.83;;;10.70;99.90;;;;;;4818174;29;20051;-68
2022/10/02 06:07:55;;;;;;;19.30;3.17;;;10.70;99.90;;;;;;4829428;29;20038;-65
2022/10/02 06:10:28;;;;;;;25.10;3.47;;;10.70;99.90;;;;;;4828560;29;20345;-65
2022/10/02 06:13:04;;;;;;;18.20;3.13;;;10.70;99.90;;;;;;4828639;29;20098;-66
2022/10/02 06:15:41;;;;;;;17.08;3.78;;;10.70;99.90;;;;;;4828082;29;20054;-65
2022/10/02 06:18:14;;;;;;;24.27;3.30;;;10.70;99.90;;;;;;4826214;29;20054;-65
2022/10/02 06:21:03;;;;;;;29.65;3.60;;;10.70;99.90;;;;;;4830649;29;20121;-65
2022/10/02 06:23:40;;;;;;;24.08;2.95;;;10.70;99.90;;;;;;4833939;29;20532;-67
2022/10/02 06:26:14;;;;;;;21.45;3.35;;;10.70;99.90;;;;;;4823359;29;20371;-66
2022/10/02 06:28:47;;;;;;;24.67;3.35;;;10.80;99.90;;;;;;4826110;29;20075;-66
2022/10/02 06:31:29;;;;;;;35.05;4.78;;;10.80;99.90;;;;;;4826829;29;20433;-66
2022/10/02 06:33:55;;;;;;;27.45;3.50;;;10.80;99.90;;;;;;4826291;29;20378;-66
2022/10/02 06:36:53;;;;;;;30.50;4.18;;;10.90;99.90;;;;;;4825926;29;20125;-66
2022/10/02 06:39:28;;;;;;;26.50;4.82;;;10.90;99.90;;;;;;4817988;29;20423;-66
2022/10/02 06:42:04;;;;;;;27.15;3.70;;;10.90;99.90;;;;;;4809136;29;20363;-66
2022/10/02 06:45:02;;;;;;;29.70;3.95;;;11.00;99.90;;;;;;4812915;29;20473;-67
2022/10/02 06:47:35;;;;;;;29.20;3.22;;;11.00;99.90;;;;;;4827818;29;20065;-65
2022/10/02 06:50:27;;;;;;;25.33;4.10;;;11.10;99.90;;;;;;4803537;29;20061;-67
2022/10/02 06:53:12;;;;;;;26.08;3.67;;;11.20;99.90;;;;;;4828115;29;20046;-67
2022/10/02 06:55:50;;;;;;;24.48;3.90;;;11.30;99.90;;;;;;4826164;29;20051;-66
2022/10/02 06:58:54;;;;;;;21.73;2.92;;;11.40;99.90;;;;;;4826130;29;20054;-66
2022/10/02 07:01:50;;;;;;;30.85;4.00;;;11.50;99.90;;;;;;4830951;29;20054;-66
2022/10/02 07:04:41;;;;;;;21.63;3.40;;;11.60;99.90;;;;;;4829943;29;20057;-66
2022/10/02 07:07:27;;;;;;;27.75;4.47;;;11.60;99.90;;;;;;4824657;29;20065;-66
2022/10/02 07:10:20;;;;;;;28.05;3.63;;;11.70;99.90;;;;;;4827787;29;20051;-66
2022/10/02 07:12:55;;;;;;;18.15;3.10;;;11.70;99.90;;;;;;4825906;29;20089;-66
2022/10/02 07:15:47;;;;;;;22.48;3.08;;;11.80;99.90;;;;;;4820251;29;20107;-67
2022/10/02 07:18:32;;;;;;;23.92;4.10;;;11.80;99.90;;;;;;4830821;29;20053;-66
2022/10/02 07:21:25;;;;;;;23.58;3.50;;;11.80;99.90;;;;;;4830231;29;20397;-66
2022/10/02 07:24:03;;;;;;;34.90;5.05;;;11.80;99.90;;;;;;4820733;29;20055;-66
2022/10/02 07:26:48;;;;;;;30.20;3.63;;;11.80;99.90;;;;;;4834491;29;20063;-67
2022/10/02 07:29:39;;;;;;;29.48;4.18;;;11.90;99.90;;;;;;4835242;29;20038;-67
2022/10/02 07:32:16;;;;;;;21.70;3.30;;;11.90;99.90;;;;;;4832069;29;20050;-67
2022/10/02 07:35:07;;;;;;;26.65;3.85;;;11.90;99.90;;;;;;4825882;29;20050;-68
2022/10/02 07:38:00;;;;;;;23.33;4.05;;;12.00;99.90;;;;;;4825155;29;20098;-65
2022/10/02 07:40:30;;;;;;;18.08;3.42;;;12.10;99.90;;;;;;4834561;29;20065;-66
2022/10/02 07:43:14;;;;;;;19.92;3.92;;;12.20;99.90;;;;;;4831448;29;20050;-66
2022/10/02 07:45:51;;;;;;;19.80;3.25;;;12.30;99.90;;;;;;4823809;29;20046;-65
2022/10/02 07:48:36;;;;;;;25.55;4.32;;;12.40;99.90;;;;;;4828416;29;20043;-65
2022/10/02 07:51:49;;;;;;;20.02;3.70;;;12.50;99.90;;;;;;4831859;29;20533;-66
2022/10/02 07:54:30;;;;;;;24.42;4.05;;;12.60;99.90;;;;;;4830059;29;20133;-66
2022/10/02 07:57:02;;;;;;;25.17;4.55;;;12.60;99.90;;;;;;4824739;29;20130;-67
2022/10/02 07:59:30;;;;;;;30.45;4.40;;;12.60;99.90;;;;;;4826305;29;20191;-66
2022/10/02 08:01:57;;;;;;;36.08;5.50;;;12.70;99.90;;;;;;4825544;29;20081;-67
2022/10/02 08:04:32;;;;;;;24.77;4.43;;;12.70;99.90;;;;;;4829425;29;20061;-67
2022/10/02 08:07:01;;;;;;;30.33;4.32;;;12.70;99.90;;;;;;4818186;29;20409;-66
2022/10/02 08:09:36;;;;;;;26.95;4.25;;;12.70;99.90;;;;;;4833176;29;20099;-66
2022/10/02 08:12:02;;;;;;;19.55;3.25;;;12.70;99.90;;;;;;4821693;29;20054;-67
2022/10/02 08:14:41;;;;;;;16.55;3.15;;;12.80;99.90;;;;;;4824100;29;20054;-65
2022/10/02 08:17:36;;;;;;;16.77;3.08;;;12.80;99.90;;;;;;4825248;29;20057;-66
2022/10/02 08:20:30;;;;;;;14.25;3.10;;;12.90;99.90;;;;;;4824938;29;20054;-67
2022/10/02 08:23:32;;;;;;;13.40;2.80;;;13.10;99.90;;;;;;4827316;29;20130;-66
2022/10/02 08:26:16;;;;;;;17.15;3.42;;;13.20;99.90;;;;;;4821198;29;20050;-66
2022/10/02 08:28:50;;;;;;;18.25;3.55;;;13.20;99.90;;;;;;4825315;29;20078;-67
2022/10/02 08:31:16;;;;;;;29.33;3.90;;;13.10;99.90;;;;;;4816880;29;20046;-67
2022/10/02 08:33:42;;;;;;;20.00;3.40;;;13.10;99.90;;;;;;4828720;29;20424;-66
2022/10/02 08:36:26;;;;;;;18.17;3.03;;;13.10;99.90;;;;;;4820369;29;20062;-66
2022/10/02 08:39:27;;;;;;;18.88;3.80;;;13.20;99.90;;;;;;4823096;29;20110;-66
2022/10/02 08:42:17;;;;;;;12.68;2.58;;;13.10;99.90;;;;;;4826831;29;20138;-66
2022/10/02 08:45:08;;;;;;;16.58;2.85;;;13.10;99.90;;;;;;4825752;29;20050;-67
2022/10/02 08:47:52;;;;;;;15.90;3.13;;;13.10;99.90;;;;;;4821373;29;20121;-66
2022/10/02 08:51:08;;;;;;;18.15;3.30;;;13.10;99.90;;;;;;4825007;29;20057;-67
2022/10/02 08:57:25;;;;;;;18.25;3.72;;;13.20;99.90;;;;;;4815709;29;20067;-67
2022/10/02 09:00:06;;;;;;;22.33;3.60;;;13.20;99.90;;;;;;4824405;29;20062;-67
2022/10/02 09:03:09;;;;;;;17.02;3.40;;;13.10;99.90;;;;;;4797624;29;20137;-67
2022/10/02 09:05:59;;;;;;;12.35;3.17;;;13.00;99.90;;;;;;4815183;29;20062;-68
2022/10/02 09:08:50;;;;;;;14.88;3.53;;;13.00;99.90;;;;;;4813862;29;20081;-68
2022/10/02 09:11:28;;;;;;;15.32;3.28;;;13.00;99.90;;;;;;4819461;29;20054;-67
2022/10/02 09:14:09;;;;;;;13.48;3.15;;;13.10;99.90;;;;;;4811533;29;20502;-67
2022/10/02 09:17:08;;;;;;;17.27;2.65;;;13.10;99.90;;;;;;4830697;29;20054;-67
2022/10/02 09:20:05;;;;;;;16.83;3.17;;;13.10;99.90;;;;;;4814837;29;20645;-66
2022/10/02 09:22:44;;;;;;;16.92;3.58;;;13.10;99.90;;;;;;4822544;29;20058;-66
2022/10/02 09:25:23;;;;;;;17.38;2.92;;;13.20;99.90;;;;;;4839547;29;20058;-66
2022/10/02 09:28:10;;;;;;;17.05;2.97;;;13.10;99.90;;;;;;4820189;29;20497;-66
2022/10/02 09:30:57;;;;;;;13.50;3.08;;;13.30;99.90;;;;;;4824648;29;20042;-67
2022/10/02 09:33:41;;;;;;;14.18;2.75;;;13.60;99.90;;;;;;4810451;29;20393;-67
2022/10/02 09:36:34;;;;;;;18.83;3.05;;;13.90;99.90;;;;;;4824796;29;20706;-68
2022/10/02 09:39:23;;;;;;;17.88;2.95;;;14.30;99.90;;;;;;4824445;29;20050;-68
2022/10/02 09:42:20;;;;;;;24.98;3.78;;;14.60;99.90;;;;;;4823193;29;20482;-66
2022/10/02 09:45:07;;;;;;;18.17;3.00;;;14.90;99.90;;;;;;4826016;29;20065;-67
2022/10/02 09:48:09;;;;;;;13.43;3.38;;;15.10;99.90;;;;;;4824356;29;20050;-67
2022/10/02 09:51:09;;;;;;;33.53;4.88;;;15.40;99.90;;;;;;4816178;29;20083;-66
2022/10/02 09:53:44;;;;;;;14.75;3.40;;;15.60;99.90;;;;;;4823167;29;20065;-66
2022/10/02 09:56:22;;;;;;;23.55;3.42;;;15.90;99.90;;;;;;4811217;29;20046;-67
2022/10/02 09:59:22;;;;;;;26.10;3.30;;;16.00;99.90;;;;;;4825363;29;20057;-66
2022/10/02 10:02:33;;;;;;;21.05;3.30;;;16.20;99.90;;;;;;4791348;29;20059;-69
2022/10/02 10:05:26;;;;;;;16.90;4.18;;;16.50;99.90;;;;;;4780910;29;20043;-66
2022/10/02 10:08:14;;;;;;;19.23;3.58;;;16.70;99.90;;;;;;4826247;29;20051;-66
2022/10/02 10:10:39;;;;;;;18.08;3.30;;;16.90;99.90;;;;;;4824947;29;20409;-67
2022/10/02 10:13:48;;;;;;;21.30;3.38;;;17.10;99.90;;;;;;4828960;29;20046;-66
2022/10/02 10:16:31;;;;;;;20.10;3.45;;;16.90;99.90;;;;;;4824187;29;20439;-67
2022/10/02 10:19:22;;;;;;;12.98;3.08;;;16.60;99.90;;;;;;4809589;29;20051;-66
2022/10/02 10:22:30;;;;;;;21.05;3.20;;;16.40;99.90;;;;;;4830238;29;20050;-65
2022/10/02 10:25:09;;;;;;;21.08;3.90;;;16.10;99.90;;;;;;4822554;29;20118;-67
2022/10/02 10:27:59;;;;;;;24.35;3.58;;;15.90;99.90;;;;;;4827498;29;20074;-67
2022/10/02 10:30:31;;;;;;;19.00;3.53;;;16.10;99.90;;;;;;4828863;29;20046;-66
2022/10/02 10:33:23;;;;;;;17.17;3.97;;;16.50;99.90;;;;;;4819925;29;20079;-67
2022/10/02 10:39:39;;;;;;;19.02;2.97;;;17.70;99.90;;;;;;4807608;29;20061;-67
2022/10/02 10:42:24;;;;;;;12.55;2.97;;;17.90;99.90;;;;;;4812250;29;20471;-67
2022/10/02 10:45:10;;;;;;;12.43;2.75;;;18.00;99.90;;;;;;4819842;29;20057;-68
2022/10/02 10:47:42;;;;;;;15.50;3.30;;;18.20;99.90;;;;;;4835109;29;20478;-67
2022/10/02 10:50:44;;;;;;;17.58;4.43;;;17.90;99.90;;;;;;4823774;29;20062;-68
2022/10/02 10:53:53;;;;;;;23.45;3.55;;;17.40;99.90;;;;;;4827410;29;20069;-66
2022/10/02 10:56:37;;;;;;;18.48;3.50;;;17.30;99.90;;;;;;4827288;29;20111;-66
2022/10/02 10:59:21;;;;;;;23.35;3.47;;;17.40;99.90;;;;;;4826264;29;20054;-67
2022/10/02 11:02:20;;;;;;;22.20;3.63;;;17.60;99.90;;;;;;4817472;29;20125;-65
2022/10/02 11:04:46;;;;;;;25.38;3.70;;;17.60;99.90;;;;;;4821337;29;20042;-67
2022/10/02 11:07:53;;;;;;;19.27;2.97;;;17.50;99.90;;;;;;4826701;29;20497;-67
2022/10/02 11:10:51;;;;;;;19.20;3.75;;;17.20;99.90;;;;;;4824947;29;20050;-67
2022/10/02 11:13:35;;;;;;;20.60;3.33;;;16.80;99.90;;;;;;4805393;29;20058;-66
2022/10/02 11:16:33;;;;;;;13.85;3.10;;;16.50;99.90;;;;;;4826116;29;20442;-66
2022/10/02 11:19:19;;;;;;;22.55;3.63;;;16.70;99.90;;;;;;4819723;29;20054;-67
2022/10/02 11:22:11;;;;;;;16.67;3.13;;;17.30;99.90;;;;;;4819856;29;20042;-66
2022/10/02 11:25:08;;;;;;;13.63;2.97;;;17.80;99.90;;;;;;4827636;29;20493;-67
2022/10/02 11:27:37;;;;;;;13.60;2.63;;;18.10;99.90;;;;;;4824003;29;20133;-67
2022/10/02 11:30:22;;;;;;;14.65;3.05;;;18.50;99.90;;;;;;4809461;29;20501;-68
2022/10/02 11:33:19;;;;;;;14.75;3.17;;;18.80;99.90;;;;;;4823976;29;20058;-67
2022/10/02 11:35:55;;;;;;;16.08;2.70;;;19.00;99.90;;;;;;4821659;29;20046;-67
2022/10/02 11:38:45;;;;;;;12.82;3.47;;;18.90;99.90;;;;;;4823349;29;20077;-67
2022/10/02 11:41:50;;;;;;;17.52;3.42;;;18.50;99.90;;;;;;4791408;29;20047;-66
2022/10/02 11:44:16;;;;;;;17.65;3.08;;;18.30;99.90;;;;;;4797791;29;20144;-66
2022/10/02 11:47:06;;;;;;;12.20;3.08;;;18.70;99.90;;;;;;4820564;29;20149;-68
2022/10/02 11:49:48;;;;;;;18.38;2.72;;;19.30;99.90;;;;;;4790680;29;20077;-66
2022/10/02 11:52:20;;;;;;;14.82;3.28;;;19.30;99.90;;;;;;4820277;29;20136;-67
2022/10/02 11:55:21;;;;;;;15.60;3.45;;;19.10;99.90;;;;;;4822338;29;20042;-67
2022/10/02 11:58:06;;;;;;;9.52;2.53;;;18.60;99.90;;;;;;4820781;29;20057;-67
2022/10/02 12:00:58;;;;;;;16.13;2.85;;;18.20;99.90;;;;;;4822473;29;20061;-67
2022/10/02 12:03:56;;;;;;;11.55;2.30;;;17.90;99.90;;;;;;4820062;29;20046;-67
2022/10/02 12:07:13;;;;;;;13.77;2.75;;;17.70;99.90;;;;;;4798133;29;20160;-68
2022/10/02 12:10:01;;;;;;;12.27;2.53;;;17.90;99.90;;;;;;4821269;29;20051;-68
2022/10/02 12:12:38;;;;;;;18.00;3.20;;;18.50;99.90;;;;;;4820159;29;20516;-67
2022/10/02 12:15:10;;;;;;;13.65;2.70;;;19.10;99.90;;;;;;4824590;29;20133;-66
2022/10/02 12:17:59;;;;;;;10.75;2.17;;;19.30;99.90;;;;;;4819461;29;20047;-67
2022/10/02 12:29:40;;;;;;;12.48;2.63;;;19.50;99.90;;;;;;4824313;29;20055;-67
2022/10/02 12:32:09;;;;;;;10.52;2.83;;;19.80;99.90;;;;;;4823564;29;20050;-67
2022/10/02 12:35:02;;;;;;;12.35;2.03;;;20.00;99.90;;;;;;4823328;29;20590;-68
2022/10/02 12:37:41;;;;;;;19.63;3.60;;;19.70;99.50;;;;;;4824036;29;20088;-67
2022/10/02 12:40:31;;;;;;;14.07;2.55;;;19.10;99.90;;;;;;4824121;29;20481;-66
2022/10/02 12:43:27;;;;;;;16.23;3.05;;;18.60;99.90;;;;;;4824230;29;20054;-68
2022/10/02 12:46:02;;;;;;;13.23;3.08;;;18.20;99.90;;;;;;4824163;29;20073;-68
2022/10/02 12:48:49;;;;;;;16.42;3.05;;;17.90;99.90;;;;;;4824973;29;20076;-66
2022/10/02 12:51:37;;;;;;;11.90;3.05;;;17.50;99.90;;;;;;4824052;29;20058;-65
2022/10/02 12:54:34;;;;;;;17.70;3.10;;;17.20;99.90;;;;;;4817335;29;20138;-67
2022/10/02 12:57:54;;;;;;;14.82;3.15;;;16.90;99.90;;;;;;4819912;29;20134;-67
2022/10/02 13:00:23;;;;;;;19.45;3.63;;;16.70;99.90;;;;;;4791716;29;20059;-67
2022/10/02 13:03:19;;;;;;;16.35;3.28;;;16.60;99.90;;;;;;4810490;29;20050;-65
2022/10/02 13:06:17;;;;;;;16.42;3.58;;;16.70;99.90;;;;;;4827032;29;21034;-69
2022/10/02 13:09:06;;;;;;;13.68;2.70;;;16.70;99.90;;;;;;4826793;29;20052;-68
2022/10/02 13:12:08;;;;;;;23.88;2.85;;;16.70;99.90;;;;;;4800278;29;20055;-67
2022/10/02 13:15:00;;;;;;;19.27;3.25;;;16.70;99.90;;;;;;4826778;29;20084;-67
2022/10/02 13:17:54;;;;;;;15.60;3.28;;;16.60;99.90;;;;;;4822931;29;20062;-68
2022/10/02 13:20:28;;;;;;;16.73;2.90;;;16.60;99.90;;;;;;4813480;29;20538;-67
2022/10/02 13:23:05;;;;;;;17.40;3.17;;;16.50;99.90;;;;;;4826198;29;20110;-68
2022/10/02 13:25:36;;;;;;;18.20;3.13;;;16.60;99.90;;;;;;4824487;29;20103;-67
2022/10/02 13:28:13;;;;;;;16.45;3.13;;;16.60;99.90;;;;;;4825894;29;20125;-67
2022/10/02 13:30:46;;;;;;;23.63;3.55;;;16.50;99.90;;;;;;4808749;29;20405;-66
2022/10/02 13:33:27;;;;;;;17.02;3.55;;;16.40;99.90;;;;;;4823523;29;20089;-67
2022/10/02 13:36:17;;;;;;;18.75;3.25;;;16.30;99.90;;;;;;4822926;29;20354;-67
2022/10/02 13:38:58;;;;;;;25.95;4.07;;;16.30;99.90;;;;;;4825063;29;20486;-67
2022/10/02 13:41:42;;;;;;;16.60;3.40;;;16.20;99.90;;;;;;4825501;29;20079;-67
2022/10/02 13:44:17;;;;;;;19.05;4.07;;;16.10;99.90;;;;;;4824394;29;20477;-67
2022/10/02 13:46:50;;;;;;;14.48;3.13;;;16.10;99.90;;;;;;4823564;29;20129;-67
2022/10/02 13:49:26;;;;;;;16.92;3.58;;;16.20;99.90;;;;;;4821650;29;20184;-68
2022/10/02 13:52:18;;;;;;;15.05;3.00;;;16.20;99.90;;;;;;4823044;29;20050;-66
2022/10/02 13:54:49;;;;;;;19.58;4.13;;;16.20;99.90;;;;;;4824105;29;20050;-66
2022/10/02 13:57:52;;;;;;;16.23;3.42;;;16.30;99.90;;;;;;4831208;29;20053;-66
2022/10/02 14:00:37;;;;;;;19.30;3.53;;;16.20;99.90;;;;;;4820002;29;20401;-67
2022/10/02 14:03:23;;;;;;;22.85;3.88;;;16.10;99.90;;;;;;4823628;29;20115;-67
2022/10/02 14:06:21;;;;;;;14.77;3.13;;;16.10;99.90;;;;;;4822275;29;20486;-65
2022/10/02 14:09:10;;;;;;;15.75;3.13;;;16.10;99.90;;;;;;4822095;29;20529;-69
2022/10/02 14:12:04;;;;;;;19.83;3.80;;;16.00;99.90;;;;;;4825203;29;20149;-67
2022/10/02 14:15:02;;;;;;;19.20;3.20;;;16.00;99.90;;;;;;4823158;29;20308;-66
2022/10/02 14:18:16;;;;;;;14.82;2.80;;;15.90;99.90;;;;;;4825867;29;20050;-67
2022/10/02 14:20:57;;;;;;;19.60;2.95;;;15.90;99.90;;;;;;4812860;29;20074;-68
2022/10/02 14:23:58;;;;;;;20.52;4.38;;;15.80;99.90;;;;;;4825070;29;20098;-67
2022/10/02 14:26:43;;;;;;;22.10;3.58;;;15.70;99.90;;;;;;4817309;29;20067;-67
2022/10/02 14:29:11;;;;;;;21.08;3.40;;;15.70;99.90;;;;;;4819809;29;20050;-66
2022/10/02 14:31:58;;;;;;;26.05;4.72;;;15.70;99.90;;;;;;4822981;29;20070;-67
2022/10/02 14:34:58;;;;;;;20.73;3.47;;;15.70;99.90;;;;;;4823307;29;20060;-67
2022/10/02 14:37:59;;;;;;;19.63;3.53;;;15.80;99.90;;;;;;4822690;29;20046;-66
2022/10/02 14:40:50;;;;;;;20.30;3.53;;;15.90;99.90;;;;;;4790914;29;20139;-66
2022/10/02 14:43:34;;;;;;;20.33;3.47;;;15.80;99.90;;;;;;4825957;29;20053;-67
2022/10/02 14:46:24;;;;;;;16.88;4.07;;;15.80;99.90;;;;;;4823601;29;20109;-68
2022/10/02 14:49:06;;;;;;;13.73;2.90;;;15.80;99.90;;;;;;4805326;29;20121;-67
2022/10/02 14:51:39;;;;;;;20.90;3.72;;;15.80;99.90;;;;;;4822963;29;20145;-67
2022/10/02 14:54:32;;;;;;;25.02;3.47;;;15.70;99.90;;;;;;4823313;29;20066;-66
2022/10/02 14:57:35;;;;;;;15.70;2.90;;;15.60;99.90;;;;;;4820540;29;20070;-67
2022/10/02 15:00:17;;;;;;;26.10;4.45;;;15.60;99.90;;;;;;4820646;29;20058;-66
2022/10/02 15:03:23;;;;;;;20.23;3.70;;;15.50;99.90;;;;;;4822585;29;20569;-66
2022/10/02 15:06:20;;;;;;;16.17;3.05;;;15.40;99.90;;;;;;4823359;29;20501;-66
2022/10/02 15:08:56;;;;;;;15.85;3.03;;;15.30;99.90;;;;;;4822825;29;20375;-66
2022/10/02 15:11:38;;;;;;;18.02;3.97;;;15.20;99.90;;;;;;4823286;29;20447;-67
2022/10/02 15:14:20;;;;;;;20.98;4.00;;;15.20;99.90;;;;;;4821067;29;20479;-67
2022/10/02 15:20:15;;;;;;;15.68;3.35;;;15.10;99.90;;;;;;4815680;29;20062;-67
2022/10/02 15:22:53;;;;;;;19.42;3.83;;;15.00;99.90;;;;;;4804696;29;20054;-66
2022/10/02 15:25:57;;;;;;;16.02;3.97;;;15.10;99.90;;;;;;4805919;29;20065;-66
2022/10/02 15:28:36;;;;;;;19.75;4.05;;;15.00;99.90;;;;;;4820695;29;20482;-67
2022/10/02 15:31:20;;;;;;;20.30;3.78;;;15.00;99.90;;;;;;4820515;29;20178;-67
2022/10/02 15:34:06;;;;;;;20.63;3.42;;;15.00;99.90;;;;;;4819733;29;20189;-68
2022/10/02 15:36:53;;;;;;;20.08;3.70;;;15.00;99.90;;;;;;4820456;29;20090;-68
2022/10/02 15:39:21;;;;;;;18.35;3.60;;;15.00;99.90;;;;;;4822879;29;20267;-67
2022/10/02 15:42:02;;;;;;;20.63;3.92;;;15.00;99.90;;;;;;4820804;29;20054;-66
2022/10/02 15:44:39;;;;;;;19.50;3.88;;;15.00;99.90;;;;;;4820483;29;20050;-68
2022/10/02 15:47:42;;;;;;;16.95;3.80;;;15.00;99.90;;;;;;4817089;29;20054;-66
2022/10/02 15:50:41;;;;;;;18.55;4.13;;;14.90;99.90;;;;;;4801286;29;20055;-66
2022/10/02 15:53:40;;;;;;;19.50;3.30;;;14.90;99.90;;;;;;4819661;29;20506;-66
2022/10/02 15:56:43;;;;;;;15.40;3.88;;;14.90;99.90;;;;;;4806991;29;20054;-66
2022/10/02 15:59:27;;;;;;;28.90;3.50;;;14.80;99.90;;;;;;4823361;29;20521;-65
2022/10/02 16:02:28;;;;;;;16.85;3.00;;;14.80;99.90;;;;;;4822127;29;20046;-67
2022/10/02 16:04:53;;;;;;;21.77;3.60;;;14.90;99.90;;;;;;4817750;29;20102;-68
2022/10/02 16:07:38;;;;;;;19.67;3.42;;;14.80;99.90;;;;;;4823525;29;20054;-67
2022/10/02 16:10:25;;;;;;;28.15;4.55;;;14.80;99.90;;;;;;4824105;29;20054;-67
2022/10/02 16:13:28;;;;;;;19.85;3.65;;;14.70;99.90;;;;;;4823856;29;20057;-67